Terminal Aerodrome Forecast
Issued by NWS Sterling, VA

Current Version | Previous Version | Text Only | Print | Product List | Glossary On
Versions: 1 2 3 4 5 6 7 8 9 10 11 12 13 14 15 16 17 18 19 20 21 22
000
FTUS41 KLWX 210800 AAA
TAFBWI
TAF AMD
KBWI 210850Z 2109/2212 29012G18KT P6SM SCT060
     FM211400 30012G22KT P6SM SCT050
     FM212300 30007KT P6SM SKC
     FM220600 VRB03KT P6SM FEW250=

USA.gov is the U.S. government's official web portal to all federal, state and local government web resources and services.